createdAt,value
2017-03-02T16:08:24.068Z,1004.7
2017-03-02T16:08:34.051Z,1004.75
2017-03-02T16:08:44.043Z,1004.69
2017-03-02T16:08:54.032Z,1004.74
2017-03-02T16:09:04.029Z,1004.7
2017-03-02T16:09:14.019Z,1004.79
2017-03-02T16:09:24.032Z,1004.79
2017-03-02T16:09:33.726Z,1004.8
2017-03-02T16:09:44.002Z,1004.74
2017-03-02T16:09:53.997Z,1004.7
2017-03-02T16:10:03.573Z,1004.68
2017-03-02T16:10:14.003Z,1004.7
2017-03-02T16:10:23.996Z,1004.66
2017-03-02T16:10:33.975Z,1004.7
2017-03-02T16:10:43.968Z,1004.69
2017-03-02T16:10:53.959Z,1004.69
2017-03-02T16:11:03.951Z,1004.74
2017-03-02T16:11:13.960Z,1004.7
2017-03-02T16:11:24.229Z,1004.67
2017-03-02T16:11:33.938Z,1004.69
2017-03-02T16:11:43.941Z,1004.69
2017-03-02T16:11:53.918Z,1004.76
2017-03-02T16:12:03.919Z,1004.74
2017-03-02T16:12:13.904Z,1004.73
2017-03-02T16:12:23.903Z,1004.75
2017-03-02T16:12:33.477Z,1004.73
2017-03-02T16:12:43.897Z,1004.71
2017-03-02T16:12:53.896Z,1004.72
2017-03-02T16:13:03.881Z,1004.72
2017-03-02T16:13:13.878Z,1004.77
2017-03-02T16:13:24.120Z,1004.74
2017-03-02T16:13:33.870Z,1004.76
2017-03-02T16:13:43.853Z,1004.77
2017-03-02T16:13:53.847Z,1004.78
2017-03-02T16:14:03.422Z,1004.72
2017-03-02T16:14:13.837Z,1004.77
2017-03-02T16:14:23.843Z,1004.77
2017-03-02T16:14:33.828Z,1004.72
2017-03-02T16:14:43.407Z,1004.71
2017-03-02T16:14:53.415Z,1004.72
2017-03-02T16:15:03.397Z,1004.75
2017-03-02T16:15:13.817Z,1004.73
2017-03-02T16:15:23.803Z,1004.75
2017-03-02T16:15:33.788Z,1004.72
2017-03-02T16:15:43.788Z,1004.71
2017-03-02T16:15:53.773Z,1004.73
2017-03-02T16:16:03.794Z,1004.77
2017-03-02T16:16:13.771Z,1004.81
2017-03-02T16:16:23.759Z,1004.71
2017-03-02T16:16:33.748Z,1004.77
2017-03-02T16:16:43.329Z,1004.74
2017-03-02T16:16:53.747Z,1004.72
2017-03-02T16:17:03.731Z,1004.8
2017-03-02T16:17:13.735Z,1004.84
2017-03-02T16:17:23.716Z,1004.78
2017-03-02T16:17:33.716Z,1004.75
2017-03-02T16:17:43.997Z,1004.74
2017-03-02T16:17:53.708Z,1004.85
2017-03-02T16:18:03.709Z,1004.82
2017-03-02T16:18:13.695Z,1004.81
2017-03-02T16:18:23.928Z,1004.8
2017-03-02T16:18:33.694Z,1004.8
2017-03-02T16:18:43.669Z,1004.78
2017-03-02T16:18:53.669Z,1004.85
2017-03-02T16:19:03.668Z,1004.83
2017-03-02T16:19:13.647Z,1004.79
2017-03-02T16:19:23.644Z,1004.83
2017-03-02T16:19:33.645Z,1004.89
2017-03-02T16:19:43.647Z,1004.95
2017-03-02T16:19:53.638Z,1004.9
2017-03-02T16:20:03.201Z,1004.88
2017-03-02T16:20:13.620Z,1004.89
2017-03-02T16:20:23.199Z,1004.89
2017-03-02T16:20:33.620Z,1004.93
2017-03-02T16:20:43.599Z,1004.86
2017-03-02T16:20:53.586Z,1004.84
2017-03-02T16:21:03.599Z,1004.89
2017-03-02T16:21:13.190Z,1004.88
2017-03-02T16:21:23.573Z,1004.93
2017-03-02T16:21:33.561Z,1004.93
2017-03-02T16:21:43.555Z,1004.95
2017-03-02T16:21:53.551Z,1004.95
2017-03-02T16:22:03.555Z,1004.95
2017-03-02T16:22:13.558Z,1004.93
2017-03-02T16:22:23.531Z,1005
2017-03-02T16:22:33.531Z,1004.88
2017-03-02T16:22:43.098Z,1004.93
2017-03-02T16:22:53.514Z,1004.93
2017-03-02T16:23:03.506Z,1004.91
2017-03-02T16:23:13.507Z,1004.98
2017-03-02T16:23:23.741Z,1004.95
2017-03-02T16:23:33.497Z,1004.97
2017-03-02T16:23:43.490Z,1004.99
2017-03-02T16:23:53.491Z,1005.01
2017-03-02T16:24:03.470Z,1005.01
2017-03-02T16:24:13.464Z,1004.99
2017-03-02T16:24:23.459Z,1004.96
2017-03-02T16:24:33.034Z,1004.98
2017-03-02T16:24:43.459Z,1004.99
2017-03-02T16:24:53.450Z,1005.01
2017-03-02T16:25:03.026Z,1005.07
2017-03-02T16:25:13.437Z,1005.01
2017-03-02T16:25:23.424Z,1004.99
2017-03-02T16:25:33.004Z,1005.04
2017-03-02T16:25:43.403Z,1004.98
2017-03-02T16:25:53.407Z,1004.99
2017-03-02T16:26:03.426Z,1005.04
2017-03-02T16:26:13.392Z,1005.13
2017-03-02T16:26:23.513Z,1005.07
2017-03-02T16:26:33.374Z,1005.09
2017-03-02T16:26:43.364Z,1005.08
2017-03-02T16:26:53.366Z,1005.02
2017-03-02T16:27:03.371Z,1005.05
2017-03-02T16:27:13.351Z,1005.11
2017-03-02T16:27:23.365Z,1005.15
2017-03-02T16:27:33.357Z,1005.08
2017-03-02T16:27:43.632Z,1005.13
2017-03-02T16:27:53.336Z,1005.12
2017-03-02T16:28:03.316Z,1004.98
2017-03-02T16:28:13.325Z,1005.07
2017-03-02T16:28:23.329Z,1005.15
2017-03-02T16:28:33.314Z,1005.18
2017-03-02T16:28:43.292Z,1005.03
2017-03-02T16:28:53.865Z,1005.11
2017-03-02T16:29:03.281Z,1005.08
2017-03-02T16:29:13.274Z,1005.06
2017-03-02T16:29:23.283Z,1005.03
2017-03-02T16:29:32.854Z,1005.09
2017-03-02T16:29:43.276Z,1005.13
2017-03-02T16:29:53.251Z,1005.14
2017-03-02T16:30:03.268Z,1005.13
2017-03-02T16:30:13.235Z,1005.1
2017-03-02T16:30:23.244Z,1005.12
2017-03-02T16:30:33.232Z,1005.17
2017-03-02T16:30:43.240Z,1005.14
2017-03-02T16:30:53.503Z,1005.16
2017-03-02T16:31:03.218Z,1005.16
2017-03-02T16:31:13.206Z,1005.13
2017-03-02T16:31:22.782Z,1005.11
2017-03-02T16:31:33.217Z,1005.1
2017-03-02T16:31:43.190Z,1005.06
2017-03-02T16:31:53.172Z,1005.03
2017-03-02T16:32:03.176Z,1005.11
2017-03-02T16:32:13.169Z,1005.14
2017-03-02T16:32:23.168Z,1005.06
2017-03-02T16:32:33.160Z,1005.07
2017-03-02T16:32:43.418Z,1005.13
2017-03-02T16:32:53.142Z,1005.15
2017-03-02T16:33:03.147Z,1005.09
2017-03-02T16:33:13.132Z,1005.14
2017-03-02T16:33:23.122Z,1005.16
2017-03-02T16:33:32.854Z,1005.03
2017-03-02T16:33:43.106Z,1005.11
2017-03-02T16:33:53.114Z,1005.06
2017-03-02T16:34:03.108Z,1005.06
2017-03-02T16:34:13.107Z,1005.14
2017-03-02T16:34:23.086Z,1005.02
2017-03-02T16:34:33.080Z,1005.1
2017-03-02T16:34:43.073Z,1005.13
2017-03-02T16:34:53.067Z,1005.08
2017-03-02T16:35:03.059Z,1005.09
2017-03-02T16:35:13.053Z,1005.06
2017-03-02T16:35:23.048Z,1005.09
2017-03-02T16:35:33.062Z,1005.06
2017-03-02T16:35:43.034Z,1005.05
2017-03-02T16:35:53.035Z,1005.08
2017-03-02T16:36:03.033Z,1005.04
2017-03-02T16:36:13.016Z,1005.09
2017-03-02T16:36:22.595Z,1005.05
2017-03-02T16:36:33.009Z,1005.09
2017-03-02T16:36:42.571Z,1005.11
2017-03-02T16:36:53.281Z,1005.15
2017-03-02T16:37:02.987Z,1005.14
2017-03-02T16:37:13.269Z,1005.11
2017-03-02T16:37:23.281Z,1005.17
2017-03-02T16:37:32.973Z,1005.13
2017-03-02T16:37:42.838Z,1005.21
2017-03-02T16:37:52.960Z,1005.11
2017-03-02T16:38:02.953Z,1005.07
2017-03-02T16:38:12.944Z,1005.1
2017-03-02T16:38:22.961Z,1005.08
2017-03-02T16:38:33.217Z,1005.09
2017-03-02T16:38:42.499Z,1005.1
2017-03-02T16:38:52.932Z,1005.03
2017-03-02T16:39:02.494Z,1005.04
2017-03-02T16:39:12.905Z,1005.12
2017-03-02T16:39:22.608Z,1005.13
2017-03-02T16:39:32.899Z,1005.08
2017-03-02T16:39:42.888Z,1005.08
2017-03-02T16:39:52.893Z,1005.08
2017-03-02T16:40:02.894Z,1005.11
2017-03-02T16:40:12.880Z,1005.1
2017-03-02T16:40:22.741Z,1005.07
2017-03-02T16:40:32.877Z,1005.13
2017-03-02T16:40:42.839Z,1005.11
2017-03-02T16:40:52.850Z,1005.1
2017-03-02T16:41:02.423Z,1005.14
2017-03-02T16:41:12.836Z,1005.11
2017-03-02T16:41:22.689Z,1005.08
2017-03-02T16:41:32.835Z,1005.1
2017-03-02T16:41:42.813Z,1005.09
2017-03-02T16:41:52.808Z,1005.14
2017-03-02T16:42:02.377Z,1005.12
2017-03-02T16:42:12.798Z,1005.15
2017-03-02T16:42:22.796Z,1005.18
2017-03-02T16:42:32.797Z,1005.18
2017-03-02T16:42:42.792Z,1005.16
2017-03-02T16:42:52.783Z,1005.2
2017-03-02T16:43:02.762Z,1005.22
2017-03-02T16:43:12.764Z,1005.21
2017-03-02T16:43:22.996Z,1005.22
2017-03-02T16:43:32.739Z,1005.18
2017-03-02T16:43:42.310Z,1005.16
2017-03-02T16:43:52.731Z,1005.12
2017-03-02T16:44:02.732Z,1005.19
2017-03-02T16:44:12.302Z,1005.15
2017-03-02T16:44:22.711Z,1005.19
2017-03-02T16:44:32.716Z,1005.16
2017-03-02T16:44:42.274Z,1005.13
2017-03-02T16:44:52.708Z,1005.19
2017-03-02T16:45:02.709Z,1005.19
2017-03-02T16:45:12.697Z,1005.2
2017-03-02T16:45:22.692Z,1005.2
2017-03-02T16:45:32.665Z,1005.22
2017-03-02T16:45:42.663Z,1005.22
2017-03-02T16:45:52.946Z,1005.25
2017-03-02T16:46:02.246Z,1005.26
2017-03-02T16:46:12.648Z,1005.25
2017-03-02T16:46:22.648Z,1005.23
2017-03-02T16:46:32.227Z,1005.16
2017-03-02T16:46:42.221Z,1005.23
2017-03-02T16:46:52.647Z,1005.25
2017-03-02T16:47:02.612Z,1005.24
2017-03-02T16:47:12.606Z,1005.3
2017-03-02T16:47:22.902Z,1005.33
2017-03-02T16:47:32.601Z,1005.27
2017-03-02T16:47:42.165Z,1005.25
2017-03-02T16:47:52.591Z,1005.3
2017-03-02T16:48:02.588Z,1005.29
2017-03-02T16:48:12.569Z,1005.32
2017-03-02T16:48:22.820Z,1005.31
2017-03-02T16:48:32.553Z,1005.3
2017-03-02T16:48:42.545Z,1005.27
2017-03-02T16:48:52.539Z,1005.32
2017-03-02T16:49:02.560Z,1005.4
2017-03-02T16:49:12.536Z,1005.4
2017-03-02T16:49:22.520Z,1005.35
2017-03-02T16:49:32.518Z,1005.36
2017-03-02T16:49:42.509Z,1005.33
2017-03-02T16:49:52.506Z,1005.36
2017-03-02T16:50:02.501Z,1005.34
2017-03-02T16:50:12.490Z,1005.4
2017-03-02T16:50:22.493Z,1005.34
2017-03-02T16:50:32.481Z,1005.33
2017-03-02T16:50:42.471Z,1005.34
2017-03-02T16:50:52.460Z,1005.33
2017-03-02T16:51:02.463Z,1005.34
2017-03-02T16:51:12.453Z,1005.35
2017-03-02T16:51:22.450Z,1005.38
2017-03-02T16:51:32.737Z,1005.34
2017-03-02T16:51:42.015Z,1005.42
2017-03-02T16:51:52.439Z,1005.4
2017-03-02T16:52:02.432Z,1005.35
2017-03-02T16:52:12.431Z,1005.42
2017-03-02T16:52:22.705Z,1005.41
2017-03-02T16:52:32.401Z,1005.35
2017-03-02T16:52:42.395Z,1005.36
2017-03-02T16:52:52.399Z,1005.41
2017-03-02T16:53:02.395Z,1005.39
2017-03-02T16:53:12.663Z,1005.42
2017-03-02T16:53:22.619Z,1005.44
2017-03-02T16:53:32.379Z,1005.43
2017-03-02T16:53:42.356Z,1005.5
2017-03-02T16:53:52.374Z,1005.38
2017-03-02T16:54:02.355Z,1005.48
2017-03-02T16:54:12.357Z,1005.41
2017-03-02T16:54:22.341Z,1005.4
2017-03-02T16:54:32.329Z,1005.43
2017-03-02T16:54:42.321Z,1005.37
2017-03-02T16:54:52.326Z,1005.42
2017-03-02T16:55:02.323Z,1005.38
2017-03-02T16:55:12.316Z,1005.45
2017-03-02T16:55:22.299Z,1005.43
2017-03-02T16:55:31.879Z,1005.48
2017-03-02T16:55:42.301Z,1005.45
2017-03-02T16:55:52.277Z,1005.46
2017-03-02T16:56:02.561Z,1005.49
2017-03-02T16:56:12.273Z,1005.47
2017-03-02T16:56:22.264Z,1005.47
2017-03-02T16:56:32.256Z,1005.49
2017-03-02T16:56:42.250Z,1005.47
2017-03-02T16:56:51.820Z,1005.48
2017-03-02T16:57:02.236Z,1005.5
2017-03-02T16:57:12.266Z,1005.44
2017-03-02T16:57:21.819Z,1005.44
2017-03-02T16:57:31.804Z,1005.46
2017-03-02T16:57:41.805Z,1005.44
2017-03-02T16:57:52.210Z,1005.42
2017-03-02T16:58:02.224Z,1005.48
2017-03-02T16:58:11.791Z,1005.49
2017-03-02T16:58:22.210Z,1005.49
2017-03-02T16:58:32.072Z,1005.46
2017-03-02T16:58:42.176Z,1005.42
2017-03-02T16:58:52.169Z,1005.46
2017-03-02T16:59:02.165Z,1005.46
2017-03-02T16:59:12.152Z,1005.45
2017-03-02T16:59:22.152Z,1005.5
2017-03-02T16:59:31.737Z,1005.46
2017-03-02T16:59:42.145Z,1005.5
2017-03-02T16:59:52.133Z,1005.49
2017-03-02T17:00:01.715Z,1005.5
2017-03-02T17:00:12.124Z,1005.45
2017-03-02T17:00:22.105Z,1005.45
2017-03-02T17:00:31.691Z,1005.5
2017-03-02T17:00:42.118Z,1005.54
2017-03-02T17:00:52.097Z,1005.53
2017-03-02T17:01:02.099Z,1005.44
2017-03-02T17:01:12.091Z,1005.46
2017-03-02T17:01:22.086Z,1005.52
2017-03-02T17:01:31.672Z,1005.57
2017-03-02T17:01:42.060Z,1005.5
2017-03-02T17:01:52.064Z,1005.54
2017-03-02T17:02:02.056Z,1005.52
2017-03-02T17:02:12.328Z,1005.46
2017-03-02T17:02:22.041Z,1005.51
2017-03-02T17:02:31.626Z,1005.45
2017-03-02T17:02:42.024Z,1005.57
2017-03-02T17:02:51.626Z,1005.44
2017-03-02T17:03:02.314Z,1005.5
2017-03-02T17:03:12.014Z,1005.41
2017-03-02T17:03:21.998Z,1005.39
2017-03-02T17:03:31.579Z,1005.49
2017-03-02T17:03:41.996Z,1005.48
2017-03-02T17:03:51.983Z,1005.47
2017-03-02T17:04:01.976Z,1005.5
2017-03-02T17:04:11.982Z,1005.44
2017-03-02T17:04:21.958Z,1005.45
2017-03-02T17:04:31.967Z,1005.51
2017-03-02T17:04:41.956Z,1005.51
2017-03-02T17:04:52.083Z,1005.52
2017-03-02T17:05:01.953Z,1005.5
2017-03-02T17:05:11.965Z,1005.5
2017-03-02T17:05:21.938Z,1005.52
2017-03-02T17:05:31.077Z,1005.43
2017-03-02T17:05:42.202Z,1005.51
2017-03-02T17:05:51.910Z,1005.55
2017-03-02T17:06:01.911Z,1005.5
2017-03-02T17:06:11.900Z,1005.51
2017-03-02T17:06:21.909Z,1005.53
2017-03-02T17:06:31.619Z,1005.55
2017-03-02T17:06:41.869Z,1005.53
2017-03-02T17:06:51.869Z,1005.53
2017-03-02T17:07:01.862Z,1005.54
2017-03-02T17:07:11.857Z,1005.48
2017-03-02T17:07:21.876Z,1005.52
2017-03-02T17:07:31.844Z,1005.53
2017-03-02T17:07:41.839Z,1005.51
2017-03-02T17:07:51.834Z,1005.53
2017-03-02T17:08:02.110Z,1005.57
2017-03-02T17:08:11.821Z,1005.53
2017-03-02T17:08:22.062Z,1005.59
2017-03-02T17:08:31.389Z,1005.59
2017-03-02T17:08:41.794Z,1005.59
2017-03-02T17:08:51.788Z,1005.55
2017-03-02T17:09:01.796Z,1005.61
2017-03-02T17:09:11.819Z,1005.6
2017-03-02T17:09:21.783Z,1005.63
2017-03-02T17:09:31.491Z,1005.58
2017-03-02T17:09:41.761Z,1005.55
2017-03-02T17:09:51.758Z,1005.58
2017-03-02T17:10:01.767Z,1005.57
2017-03-02T17:10:11.750Z,1005.56
2017-03-02T17:10:21.317Z,1005.6
2017-03-02T17:10:31.328Z,1005.62
2017-03-02T17:10:41.739Z,1005.58
2017-03-02T17:10:51.747Z,1005.59
2017-03-02T17:11:01.713Z,1005.63
2017-03-02T17:11:11.706Z,1005.61
2017-03-02T17:11:21.704Z,1005.57
2017-03-02T17:11:31.290Z,1005.65
2017-03-02T17:11:40.857Z,1005.63
2017-03-02T17:11:51.733Z,1005.69
2017-03-02T17:12:01.673Z,1005.73
2017-03-02T17:12:11.271Z,1005.65
2017-03-02T17:12:21.682Z,1005.65
2017-03-02T17:12:31.239Z,1005.7
2017-03-02T17:12:41.918Z,1005.77
2017-03-02T17:12:51.644Z,1005.77
2017-03-02T17:13:01.641Z,1005.71
2017-03-02T17:13:11.638Z,1005.69
2017-03-02T17:13:21.877Z,1005.73
2017-03-02T17:13:31.635Z,1005.76
2017-03-02T17:13:41.613Z,1005.7
2017-03-02T17:13:51.611Z,1005.74
2017-03-02T17:14:01.613Z,1005.79
2017-03-02T17:14:11.600Z,1005.77
2017-03-02T17:14:21.595Z,1005.79
2017-03-02T17:14:31.592Z,1005.74
2017-03-02T17:14:41.579Z,1005.77
2017-03-02T17:14:51.580Z,1005.79
2017-03-02T17:15:01.576Z,1005.75
2017-03-02T17:15:11.572Z,1005.78
2017-03-02T17:15:22.295Z,1005.8
2017-03-02T17:15:42.709Z,1005.81
2017-03-02T17:15:52.697Z,1005.86
2017-03-02T17:16:02.695Z,1005.79
2017-03-02T17:16:12.697Z,1005.78
2017-03-02T17:16:22.700Z,1005.78
2017-03-02T17:16:32.681Z,1005.78
2017-03-02T17:16:42.946Z,1005.84
2017-03-02T17:16:52.944Z,1005.77
2017-03-02T17:17:02.669Z,1005.77
2017-03-02T17:17:12.648Z,1005.8
2017-03-02T17:17:22.237Z,1005.81
2017-03-02T17:17:32.642Z,1005.81
2017-03-02T17:17:42.628Z,1005.82
2017-03-02T17:17:52.632Z,1005.83
2017-03-02T17:18:02.635Z,1005.82
2017-03-02T17:18:12.618Z,1005.81
2017-03-02T17:18:22.911Z,1005.78
2017-03-02T17:18:31.760Z,1005.79
2017-03-02T17:18:42.590Z,1005.77
2017-03-02T17:18:52.595Z,1005.77
2017-03-02T17:19:02.588Z,1005.83
2017-03-02T17:19:12.584Z,1005.81
2017-03-02T17:19:22.567Z,1005.82
2017-03-02T17:19:32.564Z,1005.82
2017-03-02T17:19:42.559Z,1005.85
2017-03-02T17:19:52.553Z,1005.82
2017-03-02T17:20:02.820Z,1005.88
2017-03-02T17:20:12.815Z,1005.87
2017-03-02T17:20:22.530Z,1005.84
2017-03-02T17:20:32.528Z,1005.9
2017-03-02T17:20:42.515Z,1005.91
2017-03-02T17:20:52.525Z,1005.89
2017-03-02T17:21:02.511Z,1005.83
2017-03-02T17:21:12.502Z,1005.84
2017-03-02T17:21:22.502Z,1005.83
2017-03-02T17:21:32.086Z,1005.86
2017-03-02T17:21:42.479Z,1005.81
2017-03-02T17:21:52.491Z,1005.84
2017-03-02T17:22:02.484Z,1005.84
2017-03-02T17:22:12.459Z,1005.85
2017-03-02T17:22:22.743Z,1005.83
2017-03-02T17:22:32.455Z,1005.84
2017-03-02T17:22:42.453Z,1005.82
2017-03-02T17:22:52.434Z,1005.83
2017-03-02T17:23:02.435Z,1005.88
2017-03-02T17:23:12.435Z,1005.88
2017-03-02T17:23:22.678Z,1005.92
2017-03-02T17:23:32.413Z,1005.88
2017-03-02T17:23:42.402Z,1005.93
2017-03-02T17:23:52.396Z,1005.91
2017-03-02T17:24:02.396Z,1005.9
2017-03-02T17:24:12.678Z,1005.91
2017-03-02T17:24:22.377Z,1005.89
2017-03-02T17:24:32.386Z,1005.88
2017-03-02T17:24:42.379Z,1005.87
2017-03-02T17:24:52.366Z,1005.94
2017-03-02T17:25:02.353Z,1005.9
2017-03-02T17:25:12.351Z,1005.92
2017-03-02T17:25:22.348Z,1005.93
2017-03-02T17:25:32.353Z,1005.9
2017-03-02T17:25:42.328Z,1005.86
2017-03-02T17:25:52.330Z,1005.97
2017-03-02T17:26:02.340Z,1005.95
2017-03-02T17:26:12.310Z,1005.94
2017-03-02T17:26:22.303Z,1005.98
2017-03-02T17:26:32.311Z,1005.98
2017-03-02T17:26:42.298Z,1005.94
2017-03-02T17:26:52.314Z,1005.96
2017-03-02T17:27:02.295Z,1005.97
2017-03-02T17:27:12.286Z,1006
2017-03-02T17:27:22.276Z,1005.99
2017-03-02T17:27:31.839Z,1005.96
2017-03-02T17:27:42.265Z,1005.94
2017-03-02T17:27:52.248Z,1005.99
2017-03-02T17:28:01.854Z,1005.96
2017-03-02T17:28:12.256Z,1005.96
2017-03-02T17:28:22.241Z,1005.91
2017-03-02T17:28:32.224Z,1005.95
2017-03-02T17:28:42.226Z,1005.91
2017-03-02T17:28:52.225Z,1005.91
2017-03-02T17:29:02.211Z,1005.91
2017-03-02T17:29:12.209Z,1005.92
2017-03-02T17:29:22.212Z,1005.93
2017-03-02T17:29:31.769Z,1005.98
2017-03-02T17:29:42.195Z,1005.95
2017-03-02T17:29:52.182Z,1006
2017-03-02T17:30:02.174Z,1005.97
2017-03-02T17:30:11.742Z,1006
2017-03-02T17:30:22.444Z,1006.02
2017-03-02T17:30:31.731Z,1006
2017-03-02T17:30:42.138Z,1005.96
2017-03-02T17:30:52.137Z,1006.02
2017-03-02T17:31:02.135Z,1006.05
2017-03-02T17:31:12.119Z,1005.96
2017-03-02T17:31:22.124Z,1005.97
2017-03-02T17:31:32.112Z,1005.98
2017-03-02T17:31:42.112Z,1006.02
2017-03-02T17:31:52.115Z,1006.01
2017-03-02T17:32:02.096Z,1006.01
2017-03-02T17:32:12.090Z,1005.97
2017-03-02T17:32:21.252Z,1006
2017-03-02T17:32:31.805Z,1006.05
2017-03-02T17:32:42.065Z,1005.99
2017-03-02T17:32:52.071Z,1005.97
2017-03-02T17:33:02.055Z,1005.99
2017-03-02T17:33:12.058Z,1006.01
2017-03-02T17:33:22.332Z,1006.01
2017-03-02T17:33:32.035Z,1006.05
2017-03-02T17:33:42.035Z,1006.08
2017-03-02T17:33:52.028Z,1006.09
2017-03-02T17:34:02.022Z,1006.11
2017-03-02T17:34:12.314Z,1006.1
2017-03-02T17:34:22.291Z,1006.09
2017-03-02T17:34:32.000Z,1006.1
2017-03-02T17:34:41.993Z,1006.15
2017-03-02T17:34:52.574Z,1006.18
2017-03-02T17:35:01.981Z,1006.24
2017-03-02T17:35:11.974Z,1006.16
2017-03-02T17:35:22.279Z,1006.23
2017-03-02T17:35:31.964Z,1006.22
2017-03-02T17:35:41.967Z,1006.24
2017-03-02T17:35:51.540Z,1006.21
2017-03-02T17:36:01.959Z,1006.21
2017-03-02T17:36:11.934Z,1006.23
2017-03-02T17:36:21.937Z,1006.24
2017-03-02T17:36:31.931Z,1006.21
2017-03-02T17:36:41.941Z,1006.22
2017-03-02T17:36:51.911Z,1006.18
2017-03-02T17:37:01.907Z,1006.23
2017-03-02T17:37:11.900Z,1006.29
2017-03-02T17:37:21.481Z,1006.26
2017-03-02T17:37:31.891Z,1006.31
2017-03-02T17:37:41.891Z,1006.26
2017-03-02T17:37:51.873Z,1006.28
2017-03-02T17:38:01.912Z,1006.28
2017-03-02T17:38:11.876Z,1006.24
2017-03-02T17:38:22.111Z,1006.27
2017-03-02T17:38:31.864Z,1006.26
2017-03-02T17:38:42.142Z,1006.24
2017-03-02T17:38:51.848Z,1006.29
2017-03-02T17:39:01.843Z,1006.33
2017-03-02T17:39:11.830Z,1006.29
2017-03-02T17:39:21.833Z,1006.27
2017-03-02T17:39:31.810Z,1006.3
2017-03-02T17:39:41.822Z,1006.31
2017-03-02T17:39:51.803Z,1006.33
2017-03-02T17:40:01.795Z,1006.35
2017-03-02T17:40:11.796Z,1006.32
2017-03-02T17:40:21.795Z,1006.29
2017-03-02T17:40:32.074Z,1006.29
2017-03-02T17:40:41.768Z,1006.32
2017-03-02T17:40:51.765Z,1006.32
2017-03-02T17:41:01.763Z,1006.31
2017-03-02T17:41:11.752Z,1006.38
2017-03-02T17:41:21.752Z,1006.35
2017-03-02T17:41:31.737Z,1006.35
2017-03-02T17:41:41.732Z,1006.39
2017-03-02T17:41:51.723Z,1006.37
2017-03-02T17:42:01.723Z,1006.39
2017-03-02T17:42:11.723Z,1006.39
2017-03-02T17:42:21.721Z,1006.45
2017-03-02T17:42:31.708Z,1006.4
2017-03-02T17:42:41.703Z,1006.43
2017-03-02T17:42:51.688Z,1006.41
2017-03-02T17:43:01.710Z,1006.41
2017-03-02T17:43:11.675Z,1006.42
2017-03-02T17:43:21.922Z,1006.47
2017-03-02T17:43:31.253Z,1006.45
2017-03-02T17:43:41.653Z,1006.45
2017-03-02T17:43:51.676Z,1006.41
2017-03-02T17:44:01.646Z,1006.45
2017-03-02T17:44:11.651Z,1006.44
2017-03-02T17:44:21.633Z,1006.45
2017-03-02T17:44:31.624Z,1006.44
2017-03-02T17:44:41.909Z,1006.45
2017-03-02T17:44:51.629Z,1006.51
2017-03-02T17:45:01.614Z,1006.52
2017-03-02T17:45:11.182Z,1006.44
2017-03-02T17:45:21.604Z,1006.46
2017-03-02T17:45:31.171Z,1006.45
2017-03-02T17:45:41.587Z,1006.43
2017-03-02T17:45:51.577Z,1006.47
2017-03-02T17:46:01.601Z,1006.47
2017-03-02T17:46:11.563Z,1006.49
2017-03-02T17:46:21.164Z,1006.48
2017-03-02T17:46:31.559Z,1006.5
2017-03-02T17:46:41.549Z,1006.44
2017-03-02T17:46:51.543Z,1006.46
2017-03-02T17:47:01.537Z,1006.52
2017-03-02T17:47:11.532Z,1006.48
2017-03-02T17:47:21.527Z,1006.47
2017-03-02T17:47:31.527Z,1006.46
2017-03-02T17:47:41.544Z,1006.5
2017-03-02T17:47:51.503Z,1006.52
2017-03-02T17:48:01.363Z,1006.55
2017-03-02T17:48:11.491Z,1006.48
2017-03-02T17:48:21.739Z,1006.51
2017-03-02T17:48:31.482Z,1006.49
2017-03-02T17:48:41.471Z,1006.47
2017-03-02T17:48:51.466Z,1006.49
2017-03-02T17:49:01.488Z,1006.56
2017-03-02T17:49:11.470Z,1006.55
2017-03-02T17:49:21.449Z,1006.52
2017-03-02T17:49:31.446Z,1006.5
2017-03-02T17:49:41.445Z,1006.52
2017-03-02T17:49:51.421Z,1006.51
2017-03-02T17:50:01.422Z,1006.54
2017-03-02T17:50:11.417Z,1006.58
2017-03-02T17:50:21.416Z,1006.58
2017-03-02T17:50:31.267Z,1006.58
2017-03-02T17:50:41.687Z,1006.5
2017-03-02T17:50:51.389Z,1006.56
2017-03-02T17:51:02.390Z,1006.52
2017-03-02T17:51:11.374Z,1006.54
2017-03-02T17:51:21.565Z,1006.53
2017-03-02T17:51:41.752Z,1006.58
2017-03-02T17:51:51.717Z,1006.57
2017-03-02T17:52:01.720Z,1006.5
2017-03-02T17:52:11.721Z,1006.53
2017-03-02T17:52:21.708Z,1006.52
2017-03-02T17:52:31.690Z,1006.52
2017-03-02T17:52:41.688Z,1006.56
2017-03-02T17:52:51.692Z,1006.55
2017-03-02T17:53:01.671Z,1006.48
2017-03-02T17:53:11.250Z,1006.55
2017-03-02T17:53:21.962Z,1006.51
2017-03-02T17:53:31.961Z,1006.49
2017-03-02T17:53:41.653Z,1006.47
2017-03-02T17:53:51.655Z,1006.49
2017-03-02T17:54:01.640Z,1006.57
2017-03-02T17:54:11.643Z,1006.59
2017-03-02T17:54:21.632Z,1006.6
2017-03-02T17:54:31.629Z,1006.62
2017-03-02T17:54:41.613Z,1006.63
2017-03-02T17:54:51.605Z,1006.62
2017-03-02T17:55:01.601Z,1006.69
2017-03-02T17:55:11.600Z,1006.74
2017-03-02T17:55:21.602Z,1006.62
2017-03-02T17:55:31.178Z,1006.61
2017-03-02T17:55:41.592Z,1006.56
2017-03-02T17:55:51.577Z,1006.55
2017-03-02T17:56:01.874Z,1006.59
2017-03-02T17:56:11.551Z,1006.58
2017-03-02T17:56:21.555Z,1006.56
2017-03-02T17:56:31.135Z,1006.62
2017-03-02T17:56:41.555Z,1006.61
2017-03-02T17:56:51.108Z,1006.58
2017-03-02T17:57:01.535Z,1006.63
2017-03-02T17:57:11.811Z,1006.6
2017-03-02T17:57:21.518Z,1006.6
2017-03-02T17:57:31.114Z,1006.59
2017-03-02T17:57:41.521Z,1006.54
2017-03-02T17:57:51.081Z,1006.59
2017-03-02T17:58:01.500Z,1006.54
2017-03-02T17:58:11.485Z,1006.57
2017-03-02T17:58:21.728Z,1006.67
2017-03-02T17:58:31.493Z,1006.56
2017-03-02T17:58:41.463Z,1006.58
2017-03-02T17:58:51.036Z,1006.61
2017-03-02T17:59:01.456Z,1006.58
2017-03-02T17:59:11.440Z,1006.56
2017-03-02T17:59:21.027Z,1006.56
2017-03-02T17:59:31.444Z,1006.54
2017-03-02T17:59:41.438Z,1006.61
2017-03-02T17:59:51.417Z,1006.51
2017-03-02T18:00:01.417Z,1006.57
2017-03-02T18:00:11.408Z,1006.52
2017-03-02T18:00:21.397Z,1006.51
2017-03-02T18:00:31.404Z,1006.51
2017-03-02T18:00:41.388Z,1006.55
2017-03-02T18:00:51.386Z,1006.5
2017-03-02T18:01:01.376Z,1006.53
2017-03-02T18:01:11.683Z,1006.55
2017-03-02T18:01:21.372Z,1006.58
2017-03-02T18:01:31.359Z,1006.58
2017-03-02T18:01:41.360Z,1006.53
2017-03-02T18:01:51.622Z,1006.55
2017-03-02T18:02:01.338Z,1006.59
2017-03-02T18:02:11.336Z,1006.51
2017-03-02T18:02:21.330Z,1006.57
2017-03-02T18:02:31.331Z,1006.6
2017-03-02T18:02:41.311Z,1006.57
2017-03-02T18:02:51.329Z,1006.55
2017-03-02T18:03:01.300Z,1006.56
2017-03-02T18:03:11.304Z,1006.6
2017-03-02T18:03:21.292Z,1006.6
2017-03-02T18:03:30.872Z,1006.5
2017-03-02T18:03:41.276Z,1006.52
2017-03-02T18:03:51.283Z,1006.49
2017-03-02T18:04:01.275Z,1006.55
2017-03-02T18:04:11.275Z,1006.58
2017-03-02T18:04:21.272Z,1006.57
2017-03-02T18:04:31.125Z,1006.58
2017-03-02T18:04:41.239Z,1006.63
2017-03-02T18:04:51.232Z,1006.59
2017-03-02T18:05:01.240Z,1006.66
2017-03-02T18:05:11.227Z,1006.62
2017-03-02T18:05:21.217Z,1006.63
2017-03-02T18:05:31.216Z,1006.57
2017-03-02T18:05:41.213Z,1006.61
2017-03-02T18:05:51.194Z,1006.61
2017-03-02T18:06:01.195Z,1006.64
2017-03-02T18:06:11.202Z,1006.64
2017-03-02T18:06:21.173Z,1006.64
2017-03-02T18:06:31.168Z,1006.62
2017-03-02T18:06:41.163Z,1006.66
2017-03-02T18:06:51.163Z,1006.6
2017-03-02T18:07:01.423Z,1006.61
2017-03-02T18:07:11.141Z,1006.6
2017-03-02T18:07:21.142Z,1006.65
2017-03-02T18:07:31.144Z,1006.65
2017-03-02T18:07:41.138Z,1006.64
2017-03-02T18:07:51.117Z,1006.59
2017-03-02T18:08:00.692Z,1006.63
2017-03-02T18:08:10.696Z,1006.71
2017-03-02T18:08:21.112Z,1006.68
2017-03-02T18:08:31.095Z,1006.65
2017-03-02T18:08:41.095Z,1006.66
2017-03-02T18:08:51.080Z,1006.66
2017-03-02T18:09:01.077Z,1006.68
2017-03-02T18:09:11.070Z,1006.71
2017-03-02T18:09:21.083Z,1006.67
2017-03-02T18:09:31.072Z,1006.65
2017-03-02T18:09:41.051Z,1006.71
2017-03-02T18:09:51.040Z,1006.68
2017-03-02T18:10:01.032Z,1006.71